Time;durP1;ratioP1;P1;durP2;ratioP2;P2;SDS_P1;SDS_P2;PMS_P1;PMS_P2;Temp;Humidity;BMP_temperature;BMP_pressure;BME280_temperature;BME280_humidity;BME280_pressure;Samples;Min_cycle;Max_cycle;Signal;HPM_P1;HPM_P2
2021/06/14 00:00:07;;;;;;;0.40;0.40;;;25.40;41.70;;;;;;5047154;28;20691;-62
2021/06/14 00:02:35;;;;;;;0.52;0.30;;;25.40;41.70;;;;;;5046935;28;20481;-62
2021/06/14 00:05:03;;;;;;;0.40;0.40;;;25.40;41.70;;;;;;5029236;28;20124;-62
2021/06/14 00:07:30;;;;;;;0.40;0.30;;;25.40;41.80;;;;;;5046513;28;20051;-62
2021/06/14 00:09:58;;;;;;;0.63;0.30;;;25.40;41.80;;;;;;5046025;28;20494;-62
2021/06/14 00:12:25;;;;;;;0.25;0.25;;;25.40;41.80;;;;;;5046628;28;20048;-62
2021/06/14 00:14:53;;;;;;;0.60;0.40;;;25.40;41.80;;;;;;5046740;28;20049;-62
2021/06/14 00:17:20;;;;;;;0.35;0.30;;;25.40;41.70;;;;;;5046281;28;20055;-62
2021/06/14 00:19:48;;;;;;;0.82;0.40;;;25.40;41.70;;;;;;5046626;28;20049;-62
2021/06/14 00:22:18;;;;;;;0.43;0.40;;;25.40;41.70;;;;;;5046213;28;20494;-62
2021/06/14 00:24:45;;;;;;;0.20;0.20;;;25.40;41.60;;;;;;5046868;28;20410;-62
2021/06/14 00:27:13;;;;;;;0.20;0.20;;;25.40;41.60;;;;;;5046190;28;20131;-62
2021/06/14 00:29:40;;;;;;;0.10;0.10;;;25.40;41.60;;;;;;5046406;28;20463;-62
2021/06/14 00:32:08;;;;;;;0.30;0.30;;;25.40;41.60;;;;;;5045878;28;20049;-62
2021/06/14 00:34:36;;;;;;;2.17;0.75;;;25.40;41.60;;;;;;5046672;28;20124;-62
2021/06/14 00:37:03;;;;;;;0.38;0.38;;;25.40;41.60;;;;;;5045900;28;20053;-62
2021/06/14 00:39:30;;;;;;;0.40;0.40;;;25.40;41.70;;;;;;5046319;28;20084;-62
2021/06/14 00:41:57;;;;;;;0.22;0.20;;;25.40;41.60;;;;;;5046193;28;20128;-62
2021/06/14 00:44:24;;;;;;;0.30;0.20;;;25.30;41.60;;;;;;5044743;28;20135;-62
2021/06/14 00:46:52;;;;;;;0.20;0.17;;;25.30;41.60;;;;;;5045789;28;20494;-62
2021/06/14 00:49:19;;;;;;;0.40;0.40;;;25.30;41.70;;;;;;5046277;28;20068;-62
2021/06/14 00:51:46;;;;;;;0.32;0.30;;;25.30;41.70;;;;;;5045245;28;20045;-62
2021/06/14 00:54:13;;;;;;;0.40;0.30;;;25.30;41.60;;;;;;5046734;28;20140;-62
2021/06/14 00:56:41;;;;;;;0.52;0.28;;;25.30;41.60;;;;;;5045606;28;20056;-62
2021/06/14 00:59:08;;;;;;;0.75;0.20;;;25.30;41.70;;;;;;5045976;28;20246;-63
2021/06/14 01:01:35;;;;;;;0.25;0.20;;;25.30;41.70;;;;;;5045491;28;20051;-62
2021/06/14 01:04:02;;;;;;;0.20;0.20;;;25.30;41.70;;;;;;5046786;28;20080;-62
2021/06/14 01:06:29;;;;;;;0.10;0.10;;;25.30;41.70;;;;;;5044518;28;20136;-62
2021/06/14 01:08:57;;;;;;;0.30;0.30;;;25.30;41.70;;;;;;5045516;28;20048;-62
2021/06/14 01:11:38;;;;;;;0.25;0.20;;;25.30;41.70;;;;;;5045241;28;20525;-62
2021/06/14 01:14:24;;;;;;;;;;;25.30;41.70;;;;;;5046281;28;20501;-62
2021/06/14 01:17:22;;;;;;;0.20;0.20;;;25.30;41.70;;;;;;5045550;28;20280;-62
2021/06/14 01:20:25;;;;;;;0.80;0.40;;;25.30;41.80;;;;;;5046127;28;20405;-62
2021/06/14 01:23:32;;;;;;;0.52;0.28;;;25.30;41.80;;;;;;5044515;28;20045;-62
2021/06/14 01:26:03;;;;;;;0.20;0.20;;;25.30;41.80;;;;;;5044992;28;20134;-62
2021/06/14 01:28:33;;;;;;;0.80;0.30;;;25.20;41.80;;;;;;5045429;28;20553;-62
2021/06/14 01:31:02;;;;;;;0.30;0.20;;;25.30;41.90;;;;;;5045710;28;20053;-62
2021/06/14 01:33:31;;;;;;;0.63;0.50;;;25.20;41.80;;;;;;5045199;28;20080;-65
2021/06/14 01:36:05;;;;;;;0.20;0.20;;;25.20;41.80;;;;;;5028251;28;20131;-62
2021/06/14 01:38:34;;;;;;;0.20;0.20;;;25.20;41.90;;;;;;5045339;28;20557;-62
2021/06/14 01:41:06;;;;;;;0.40;0.40;;;25.20;41.90;;;;;;5045154;28;20123;-62
2021/06/14 01:43:36;;;;;;;0.25;0.25;;;25.20;41.90;;;;;;5045308;28;20429;-62
2021/06/14 01:46:10;;;;;;;0.47;0.40;;;25.20;41.90;;;;;;5045411;28;20136;-62
2021/06/14 01:48:39;;;;;;;0.20;0.20;;;25.20;41.90;;;;;;5045168;28;20077;-62
2021/06/14 01:51:12;;;;;;;0.88;0.20;;;25.20;42.00;;;;;;5045225;28;20128;-62
2021/06/14 01:53:40;;;;;;;0.20;0.20;;;25.20;42.00;;;;;;5045095;28;20106;-62
2021/06/14 01:56:09;;;;;;;1.00;0.30;;;25.20;42.00;;;;;;5045488;28;20156;-62
2021/06/14 01:58:38;;;;;;;1.30;0.38;;;25.20;42.00;;;;;;5044890;28;20052;-63
2021/06/14 02:01:06;;;;;;;1.13;0.52;;;25.20;42.00;;;;;;5027527;28;20136;-62
2021/06/14 02:03:33;;;;;;;0.20;0.20;;;25.20;42.00;;;;;;5045644;28;20064;-62
2021/06/14 02:06:01;;;;;;;0.17;0.17;;;25.20;42.00;;;;;;5045467;28;20132;-62
2021/06/14 02:08:29;;;;;;;0.10;0.10;;;25.20;42.00;;;;;;5044665;28;20557;-62
2021/06/14 02:10:58;;;;;;;0.63;0.25;;;25.20;42.00;;;;;;5045213;28;20124;-62
2021/06/14 02:13:26;;;;;;;0.45;0.30;;;25.20;42.00;;;;;;5045784;28;20099;-62
2021/06/14 02:15:54;;;;;;;0.30;0.30;;;25.20;42.00;;;;;;5048013;28;20578;-62
2021/06/14 02:18:24;;;;;;;0.30;0.30;;;25.20;42.00;;;;;;5048835;28;20663;-62
2021/06/14 02:20:51;;;;;;;0.17;0.17;;;25.20;42.10;;;;;;5049152;28;20053;-62
2021/06/14 02:23:19;;;;;;;0.28;0.20;;;25.10;42.00;;;;;;5030729;28;20049;-62
2021/06/14 02:25:47;;;;;;;0.30;0.30;;;25.20;42.10;;;;;;5049290;28;20124;-62
2021/06/14 02:28:14;;;;;;;0.85;0.55;;;25.20;42.10;;;;;;5048746;28;20045;-62
2021/06/14 02:30:41;;;;;;;0.30;0.30;;;25.10;42.00;;;;;;5048637;28;20074;-62
2021/06/14 02:33:08;;;;;;;0.17;0.13;;;25.10;42.00;;;;;;5048479;28;20132;-62
2021/06/14 02:35:35;;;;;;;0.20;0.20;;;25.10;42.10;;;;;;5048482;28;20529;-62
2021/06/14 02:38:06;;;;;;;0.50;0.45;;;25.10;42.10;;;;;;5048329;28;20120;-62
2021/06/14 02:40:34;;;;;;;0.43;0.32;;;25.10;42.20;;;;;;5048304;28;20080;-62
2021/06/14 02:43:05;;;;;;;0.63;0.63;;;25.10;42.10;;;;;;5048188;28;20080;-62
2021/06/14 02:45:34;;;;;;;0.40;0.40;;;25.10;42.20;;;;;;5048166;28;20103;-62
2021/06/14 02:48:03;;;;;;;0.28;0.28;;;25.10;42.20;;;;;;5048016;28;20094;-62
2021/06/14 02:50:33;;;;;;;0.80;0.38;;;25.10;42.20;;;;;;5047969;28;20131;-62
2021/06/14 02:53:04;;;;;;;0.22;0.22;;;25.10;42.10;;;;;;5047997;28;20812;-62
2021/06/14 02:55:43;;;;;;;0.40;0.10;;;25.20;42.20;;;;;;5048221;28;20085;-62
2021/06/14 02:58:10;;;;;;;0.32;0.32;;;25.20;42.20;;;;;;5047824;28;20080;-62
2021/06/14 03:00:38;;;;;;;0.52;0.30;;;25.10;42.10;;;;;;5048068;28;20056;-62
2021/06/14 03:03:07;;;;;;;0.32;0.28;;;25.10;42.10;;;;;;5048035;28;20040;-62
2021/06/14 03:05:36;;;;;;;0.40;0.20;;;25.10;42.10;;;;;;5047514;28;20048;-62
2021/06/14 03:08:04;;;;;;;0.10;0.10;;;25.10;42.10;;;;;;5048379;28;20098;-62
2021/06/14 03:10:33;;;;;;;0.30;0.13;;;25.10;42.10;;;;;;5047213;28;20309;-62
2021/06/14 03:13:03;;;;;;;0.55;0.30;;;25.10;42.10;;;;;;5047706;28;20056;-62
2021/06/14 03:15:32;;;;;;;0.20;0.20;;;25.10;42.10;;;;;;5030465;28;20103;-62
2021/06/14 03:18:00;;;;;;;0.20;0.20;;;25.10;42.10;;;;;;5047769;28;20520;-62
2021/06/14 03:20:31;;;;;;;0.40;0.40;;;25.20;42.10;;;;;;5047436;28;20136;-62
2021/06/14 03:22:58;;;;;;;0.57;0.20;;;25.20;42.10;;;;;;5048342;28;20260;-62
2021/06/14 03:25:25;;;;;;;0.30;0.30;;;25.20;42.10;;;;;;5046470;28;20059;-62
2021/06/14 03:27:55;;;;;;;0.63;0.60;;;25.10;42.00;;;;;;5047007;28;20099;-62
2021/06/14 03:30:23;;;;;;;0.35;0.35;;;25.20;42.00;;;;;;5047356;28;20076;-62
2021/06/14 03:32:52;;;;;;;0.17;0.17;;;25.20;42.00;;;;;;5047670;28;20449;-62
2021/06/14 03:35:21;;;;;;;0.20;0.20;;;25.20;42.00;;;;;;5047712;28;20536;-62
2021/06/14 03:37:49;;;;;;;0.28;0.28;;;25.20;42.00;;;;;;5030366;28;20081;-62
2021/06/14 03:40:17;;;;;;;0.20;0.17;;;25.20;42.00;;;;;;5046834;28;20128;-62
2021/06/14 03:42:45;;;;;;;0.43;0.40;;;25.30;42.00;;;;;;5047437;28;20160;-62
2021/06/14 03:45:13;;;;;;;0.30;0.30;;;25.30;41.90;;;;;;5047152;28;20132;-63
2021/06/14 03:47:40;;;;;;;0.20;0.20;;;25.30;42.10;;;;;;5047366;28;20087;-62
2021/06/14 03:50:09;;;;;;;0.22;0.20;;;25.30;41.80;;;;;;5046445;28;20087;-62
2021/06/14 03:52:40;;;;;;;0.65;0.20;;;25.40;41.90;;;;;;5047048;28;20045;-62
2021/06/14 03:55:09;;;;;;;0.30;0.30;;;25.40;41.80;;;;;;5046855;28;20041;-62
2021/06/14 03:57:38;;;;;;;0.30;0.22;;;25.40;41.80;;;;;;5047573;28;20475;-62
2021/06/14 04:00:08;;;;;;;0.50;0.50;;;25.40;41.70;;;;;;5047109;28;20053;-62
2021/06/14 04:02:35;;;;;;;0.30;0.20;;;25.40;41.70;;;;;;5047112;28;20084;-62
2021/06/14 04:05:04;;;;;;;0.20;0.20;;;25.40;41.60;;;;;;5046471;28;20053;-62
2021/06/14 04:07:31;;;;;;;0.20;0.20;;;25.40;41.60;;;;;;5047352;28;20132;-61
2021/06/14 04:09:59;;;;;;;0.80;0.52;;;25.50;41.60;;;;;;5046397;28;20083;-62
2021/06/14 04:12:28;;;;;;;0.20;0.20;;;25.50;41.60;;;;;;5047105;28;20131;-61
2021/06/14 04:14:56;;;;;;;0.75;0.30;;;25.50;41.60;;;;;;5046822;28;20410;-65
2021/06/14 04:17:24;;;;;;;0.20;0.20;;;25.50;41.50;;;;;;5046428;28;20053;-61
2021/06/14 04:19:55;;;;;;;0.30;0.20;;;25.50;41.40;;;;;;5029903;28;20051;-61
2021/06/14 04:22:23;;;;;;;0.20;0.20;;;25.60;41.40;;;;;;5045819;28;20103;-62
2021/06/14 04:24:50;;;;;;;0.25;0.25;;;25.60;41.40;;;;;;5038124;28;20045;-62
2021/06/14 04:27:17;;;;;;;0.30;0.30;;;25.60;41.40;;;;;;5044965;28;20525;-62
2021/06/14 04:29:45;;;;;;;0.98;0.30;;;25.60;41.40;;;;;;5045647;28;20529;-61
2021/06/14 04:32:12;;;;;;;0.30;0.30;;;25.60;41.40;;;;;;5045927;28;20131;-62
2021/06/14 04:34:40;;;;;;;1.30;0.30;;;25.60;41.30;;;;;;5045906;28;20080;-61
2021/06/14 04:37:07;;;;;;;0.28;0.28;;;25.60;41.30;;;;;;5042671;28;20514;-62
2021/06/14 04:39:35;;;;;;;0.30;0.30;;;25.60;41.20;;;;;;5044940;28;20127;-61
2021/06/14 04:42:02;;;;;;;1.10;0.20;;;25.70;41.20;;;;;;5045187;28;20374;-62
2021/06/14 04:44:32;;;;;;;1.65;0.65;;;25.70;41.10;;;;;;5045097;28;20486;-62
2021/06/14 04:47:00;;;;;;;0.40;0.40;;;25.70;41.10;;;;;;5044742;28;20578;-61
2021/06/14 04:49:27;;;;;;;0.30;0.30;;;25.70;41.00;;;;;;5026903;28;20040;-61
2021/06/14 04:51:54;;;;;;;0.35;0.35;;;25.70;40.90;;;;;;5043776;28;20076;-61
2021/06/14 04:54:21;;;;;;;0.52;0.40;;;25.80;40.90;;;;;;5042841;28;20049;-61
2021/06/14 04:56:48;;;;;;;0.47;0.35;;;25.80;40.80;;;;;;5041452;28;20048;-61
2021/06/14 04:59:17;;;;;;;0.32;0.30;;;25.80;40.70;;;;;;5043983;28;20091;-62
2021/06/14 05:01:44;;;;;;;0.68;0.20;;;25.80;40.60;;;;;;5045403;28;20080;-62
2021/06/14 05:04:11;;;;;;;0.20;0.20;;;25.80;40.60;;;;;;5043853;28;20595;-62
2021/06/14 05:06:38;;;;;;;0.30;0.30;;;25.80;40.50;;;;;;5044663;28;20052;-61
2021/06/14 05:09:05;;;;;;;1.35;0.30;;;25.90;40.50;;;;;;5045979;28;20116;-62
2021/06/14 05:11:33;;;;;;;0.35;0.30;;;25.90;40.50;;;;;;5044133;28;20041;-61
2021/06/14 05:14:00;;;;;;;1.15;0.52;;;25.90;40.40;;;;;;5045263;28;20506;-61
2021/06/14 05:16:28;;;;;;;0.80;0.55;;;25.90;40.30;;;;;;5044413;28;20052;-62
2021/06/14 05:18:55;;;;;;;0.40;0.40;;;25.90;40.20;;;;;;5044604;28;20122;-62
2021/06/14 05:21:22;;;;;;;1.75;0.50;;;25.90;40.20;;;;;;5043072;28;20053;-62
2021/06/14 05:23:50;;;;;;;1.30;0.60;;;25.90;40.10;;;;;;5044231;28;20053;-62
2021/06/14 05:26:18;;;;;;;0.93;0.40;;;25.90;40.00;;;;;;5043645;28;20076;-63
2021/06/14 05:28:45;;;;;;;0.68;0.52;;;25.90;39.80;;;;;;5040895;28;20578;-59
2021/06/14 05:31:12;;;;;;;4.18;1.30;;;25.90;39.40;;;;;;5043368;28;20045;-62
2021/06/14 05:33:39;;;;;;;7.28;1.08;;;25.90;37.20;;;;;;5044019;28;20478;-60
2021/06/14 05:36:07;;;;;;;2.45;1.30;;;25.70;35.60;;;;;;5034308;28;20107;-61
2021/06/14 05:38:34;;;;;;;6.13;1.70;;;25.50;35.10;;;;;;5041387;28;20554;-59
2021/06/14 05:41:02;;;;;;;4.20;1.20;;;25.20;35.50;;;;;;5035884;28;20797;-60
2021/06/14 05:43:29;;;;;;;1.77;1.20;;;25.00;35.70;;;;;;5034272;28;20534;-59
2021/06/14 05:45:56;;;;;;;4.90;1.35;;;24.80;35.60;;;;;;5036530;28;20052;-60
2021/06/14 05:48:24;;;;;;;5.05;1.80;;;24.60;36.10;;;;;;5038453;28;20815;-60
2021/06/14 05:50:51;;;;;;;3.03;1.40;;;24.50;36.50;;;;;;5036334;28;20064;-60
2021/06/14 05:53:21;;;;;;;3.50;1.27;;;24.40;36.50;;;;;;5039622;28;20151;-59
2021/06/14 05:55:49;;;;;;;3.17;1.40;;;24.30;36.90;;;;;;5042986;28;20571;-60
2021/06/14 05:58:17;;;;;;;3.70;1.45;;;24.30;37.30;;;;;;5041719;28;20473;-60
2021/06/14 06:00:45;;;;;;;5.63;1.63;;;24.20;36.60;;;;;;5039264;28;20088;-59
2021/06/14 06:03:13;;;;;;;3.90;1.85;;;24.10;36.60;;;;;;5041753;28;20111;-62
2021/06/14 06:05:40;;;;;;;7.75;1.48;;;24.00;36.60;;;;;;5036464;28;20088;-62
2021/06/14 06:08:07;;;;;;;2.33;1.40;;;23.90;36.60;;;;;;5040318;28;20164;-61
2021/06/14 06:10:34;;;;;;;5.05;1.70;;;23.90;37.10;;;;;;5042550;28;20132;-64
2021/06/14 06:13:02;;;;;;;2.67;1.35;;;23.90;37.50;;;;;;5044125;28;20749;-62
2021/06/14 06:15:30;;;;;;;5.63;1.58;;;23.90;37.70;;;;;;5040472;28;20049;-62
2021/06/14 06:17:57;;;;;;;3.90;1.40;;;24.00;37.80;;;;;;5044275;28;20076;-61
2021/06/14 06:20:25;;;;;;;5.20;1.83;;;24.10;37.80;;;;;;5046074;28;20060;-61
2021/06/14 06:22:53;;;;;;;1.52;1.30;;;24.30;38.00;;;;;;5044286;28;20132;-62
2021/06/14 06:25:22;;;;;;;2.90;1.30;;;24.40;38.00;;;;;;5039866;28;20118;-62
2021/06/14 06:27:50;;;;;;;1.98;1.25;;;24.50;37.90;;;;;;5031970;28;20144;-59
2021/06/14 06:30:21;;;;;;;3.72;1.00;;;24.50;37.90;;;;;;5037886;28;20056;-59
2021/06/14 06:32:48;;;;;;;2.25;1.30;;;24.60;38.00;;;;;;5043550;28;20048;-61
2021/06/14 06:35:16;;;;;;;3.75;1.27;;;24.70;37.90;;;;;;5042428;28;20111;-60
2021/06/14 06:37:44;;;;;;;3.78;1.40;;;24.80;37.70;;;;;;5034453;28;20432;-61
2021/06/14 06:40:13;;;;;;;5.38;1.30;;;24.90;37.70;;;;;;5041670;28;20055;-59
2021/06/14 06:42:41;;;;;;;4.05;1.27;;;25.00;37.60;;;;;;5035522;28;20075;-61
2021/06/14 06:45:10;;;;;;;2.15;1.30;;;25.00;37.60;;;;;;5042984;28;20132;-61
2021/06/14 06:47:38;;;;;;;1.00;0.90;;;25.10;37.60;;;;;;5037666;28;20081;-61
2021/06/14 06:50:07;;;;;;;3.10;1.00;;;25.20;37.60;;;;;;5039912;28;20037;-62
2021/06/14 06:52:36;;;;;;;2.67;1.02;;;25.20;37.50;;;;;;5043610;28;20041;-62
2021/06/14 06:55:09;;;;;;;4.20;1.50;;;25.30;37.60;;;;;;5026080;28;20091;-62
2021/06/14 06:57:37;;;;;;;4.50;1.00;;;25.40;37.60;;;;;;5038892;28;20067;-60
2021/06/14 07:00:07;;;;;;;4.25;1.00;;;25.40;37.60;;;;;;5026598;28;20032;-62
2021/06/14 07:02:34;;;;;;;5.95;1.42;;;25.40;37.60;;;;;;5041422;28;20486;-60
2021/06/14 07:05:02;;;;;;;5.22;1.30;;;25.50;37.60;;;;;;5041249;28;20248;-61
2021/06/14 07:07:30;;;;;;;2.47;1.20;;;25.50;37.60;;;;;;5039077;28;20553;-60
2021/06/14 07:10:05;;;;;;;3.28;0.98;;;25.60;37.70;;;;;;5041069;28;20091;-60
2021/06/14 07:12:52;;;;;;;1.60;1.10;;;25.60;37.80;;;;;;5026740;28;20040;-63
2021/06/14 07:15:19;;;;;;;2.95;1.15;;;25.60;38.10;;;;;;5040868;28;20102;-60
2021/06/14 07:17:47;;;;;;;3.03;1.08;;;25.50;38.50;;;;;;5039881;28;20132;-61
2021/06/14 07:20:14;;;;;;;2.67;1.27;;;25.50;38.90;;;;;;5040040;28;20049;-61
2021/06/14 07:22:42;;;;;;;2.25;1.30;;;25.40;39.10;;;;;;5043954;28;20049;-62
2021/06/14 07:25:11;;;;;;;5.53;0.80;;;25.30;39.30;;;;;;5032793;28;20438;-62
2021/06/14 07:27:40;;;;;;;3.50;0.93;;;25.10;39.50;;;;;;5039201;28;20045;-64
2021/06/14 07:30:22;;;;;;;2.78;1.30;;;25.00;39.80;;;;;;5038878;28;20091;-63
2021/06/14 07:32:49;;;;;;;1.80;1.10;;;24.80;40.00;;;;;;5040426;28;20064;-72
2021/06/14 07:35:16;;;;;;;1.25;1.00;;;24.60;40.40;;;;;;5039401;28;20051;-65
2021/06/14 07:37:44;;;;;;;2.70;1.10;;;24.50;40.70;;;;;;5033307;28;20045;-60
2021/06/14 07:40:12;;;;;;;1.90;1.15;;;24.40;41.20;;;;;;5037280;28;20041;-60
2021/06/14 07:42:39;;;;;;;2.28;1.23;;;24.20;41.80;;;;;;5041574;28;20116;-63
2021/06/14 07:45:07;;;;;;;2.10;1.23;;;24.10;42.10;;;;;;5037140;28;20080;-66
2021/06/14 07:47:34;;;;;;;6.15;1.02;;;23.90;42.30;;;;;;5039889;28;20051;-61
2021/06/14 07:50:03;;;;;;;2.90;1.30;;;23.80;42.30;;;;;;5040470;28;20037;-59
2021/06/14 07:52:30;;;;;;;3.95;1.50;;;23.70;42.40;;;;;;5040707;28;20055;-61
2021/06/14 07:54:57;;;;;;;2.65;1.40;;;23.60;42.50;;;;;;5041998;28;20048;-59
2021/06/14 07:57:24;;;;;;;2.40;1.00;;;23.60;42.70;;;;;;5038882;28;20049;-64
2021/06/14 07:59:52;;;;;;;4.00;1.42;;;23.50;42.70;;;;;;5038971;28;20120;-60
2021/06/14 08:02:20;;;;;;;2.97;0.82;;;23.40;42.70;;;;;;5040947;28;20142;-59
2021/06/14 08:04:47;;;;;;;1.95;0.80;;;23.40;42.90;;;;;;5039203;28;20049;-61
2021/06/14 08:07:14;;;;;;;2.28;1.30;;;23.30;43.20;;;;;;5038083;28;20401;-60
2021/06/14 08:09:41;;;;;;;2.50;1.10;;;23.30;43.10;;;;;;5041408;28;20052;-60
2021/06/14 08:12:09;;;;;;;1.58;1.40;;;23.20;43.20;;;;;;5041077;28;20076;-56
2021/06/14 08:14:37;;;;;;;1.40;1.27;;;23.20;43.60;;;;;;5041049;28;20456;-58
2021/06/14 08:17:05;;;;;;;3.92;1.10;;;23.20;43.60;;;;;;5039869;28;20045;-59
2021/06/14 08:19:46;;;;;;;2.40;1.45;;;23.10;43.80;;;;;;5043136;28;20516;-60
2021/06/14 08:25:09;;;;;;;1.42;1.00;;;23.10;43.60;;;;;;5023576;28;20044;-60
2021/06/14 08:27:46;;;;;;;5.22;1.35;;;23.10;44.00;;;;;;5037523;28;20144;-60
2021/06/14 08:30:19;;;;;;;3.15;1.48;;;23.00;44.10;;;;;;5038258;28;20164;-60
2021/06/14 08:32:47;;;;;;;4.72;1.40;;;23.00;44.30;;;;;;5026482;28;20045;-58
2021/06/14 08:35:17;;;;;;;3.20;1.33;;;23.00;44.60;;;;;;5039900;28;20458;-62
2021/06/14 08:37:47;;;;;;;3.33;1.27;;;23.00;44.60;;;;;;5016927;28;20080;-61
2021/06/14 08:40:16;;;;;;;3.05;1.40;;;23.00;44.90;;;;;;5037901;28;20040;-59
2021/06/14 08:42:44;;;;;;;1.67;1.25;;;23.00;45.10;;;;;;5038901;28;20433;-60
2021/06/14 08:45:13;;;;;;;2.75;1.38;;;23.00;45.10;;;;;;5034823;28;20394;-59
2021/06/14 08:47:42;;;;;;;1.15;1.13;;;23.00;45.20;;;;;;5035017;28;20498;-59
2021/06/14 08:50:13;;;;;;;1.88;1.40;;;23.00;45.10;;;;;;5039713;28;20124;-59
2021/06/14 08:52:41;;;;;;;1.70;1.15;;;22.90;45.20;;;;;;5037300;28;20131;-60
2021/06/14 08:55:11;;;;;;;1.80;1.48;;;22.90;45.10;;;;;;5038780;28;20049;-59
2021/06/14 08:57:38;;;;;;;;;;;22.90;45.20;;;;;;5035184;28;20088;-58
2021/06/14 09:00:11;;;;;;;2.60;1.00;;;22.90;45.10;;;;;;5035706;28;19920;-60
2021/06/14 09:02:39;;;;;;;3.25;1.67;;;22.90;45.20;;;;;;5039288;28;20048;-59
2021/06/14 09:05:07;;;;;;;1.98;1.15;;;22.90;45.20;;;;;;5040721;28;20547;-60
2021/06/14 09:07:34;;;;;;;1.65;1.10;;;22.90;45.20;;;;;;5038001;28;20052;-61
2021/06/14 09:10:04;;;;;;;3.08;0.95;;;22.90;45.20;;;;;;5039142;28;20091;-60
2021/06/14 09:12:40;;;;;;;1.63;1.07;;;22.90;45.20;;;;;;5036356;28;20045;-60
2021/06/14 09:15:12;;;;;;;4.05;1.77;;;22.90;45.20;;;;;;5039709;28;20053;-60
2021/06/14 09:17:40;;;;;;;1.85;1.10;;;22.90;45.20;;;;;;5038696;28;20461;-61
2021/06/14 09:20:15;;;;;;;4.65;1.20;;;22.80;45.20;;;;;;5039868;28;20053;-61
2021/06/14 09:22:42;;;;;;;2.25;1.10;;;22.80;45.20;;;;;;5040667;28;20116;-61
2021/06/14 09:25:16;;;;;;;3.53;1.58;;;22.80;45.20;;;;;;5039045;28;20082;-60
2021/06/14 09:27:48;;;;;;;1.88;1.20;;;22.80;45.20;;;;;;5040093;28;20049;-59
2021/06/14 09:30:29;;;;;;;2.97;1.63;;;22.80;45.20;;;;;;5040346;28;20049;-61
2021/06/14 09:33:06;;;;;;;1.67;1.20;;;22.80;45.50;;;;;;5039471;28;20131;-60
2021/06/14 09:35:36;;;;;;;2.33;1.30;;;22.80;45.70;;;;;;5035803;28;20128;-59
2021/06/14 09:38:09;;;;;;;1.95;1.38;;;22.90;45.90;;;;;;5026763;28;21256;-60
2021/06/14 09:40:46;;;;;;;2.85;1.88;;;22.90;46.10;;;;;;5034998;28;20080;-60
2021/06/14 09:43:32;;;;;;;2.00;1.52;;;22.90;46.20;;;;;;5039389;28;20752;-60
2021/06/14 09:46:04;;;;;;;2.25;2.03;;;22.90;46.00;;;;;;5039343;28;20143;-59
2021/06/14 09:48:35;;;;;;;9.60;1.90;;;22.90;46.00;;;;;;5037275;28;20072;-59
2021/06/14 09:51:07;;;;;;;3.50;1.80;;;22.90;45.90;;;;;;5040233;28;20060;-61
2021/06/14 09:53:48;;;;;;;4.80;2.17;;;22.90;45.90;;;;;;5042197;28;20106;-60
2021/06/14 09:56:21;;;;;;;3.95;2.30;;;22.90;46.50;;;;;;5039642;28;20423;-60
2021/06/14 09:58:53;;;;;;;2.38;1.92;;;22.90;45.90;;;;;;5039045;28;20494;-60
2021/06/14 10:01:33;;;;;;;2.63;1.63;;;22.90;46.10;;;;;;5039865;28;20076;-60
2021/06/14 10:04:06;;;;;;;3.60;2.35;;;22.90;45.90;;;;;;5038283;28;20489;-57
2021/06/14 10:06:38;;;;;;;5.88;3.25;;;23.00;45.80;;;;;;5037657;28;20498;-59
2021/06/14 10:09:14;;;;;;;5.05;2.83;;;22.90;45.70;;;;;;5041953;28;20450;-58
2021/06/14 10:11:44;;;;;;;4.07;2.58;;;22.90;46.20;;;;;;5037525;28;20045;-59
2021/06/14 10:14:19;;;;;;;5.88;2.67;;;23.00;46.50;;;;;;5040842;28;20061;-58
2021/06/14 10:16:48;;;;;;;5.53;2.50;;;23.00;46.60;;;;;;5023989;28;20132;-60
2021/06/14 10:19:17;;;;;;;5.17;3.27;;;23.10;46.40;;;;;;5042341;28;20505;-60
2021/06/14 10:21:48;;;;;;;6.35;2.85;;;23.10;46.20;;;;;;5040085;28;20815;-60
2021/06/14 10:24:17;;;;;;;5.13;3.30;;;23.10;46.00;;;;;;5040751;28;20057;-60
2021/06/14 10:26:54;;;;;;;4.53;3.03;;;23.10;46.00;;;;;;5018293;28;20064;-61
2021/06/14 10:29:21;;;;;;;5.38;2.80;;;23.10;45.80;;;;;;5039237;28;20482;-61
2021/06/14 10:31:52;;;;;;;6.72;2.88;;;23.10;45.60;;;;;;5032306;28;20057;-60
2021/06/14 10:34:20;;;;;;;8.82;3.42;;;23.20;45.40;;;;;;5042762;28;20076;-55
2021/06/14 10:36:53;;;;;;;4.63;3.00;;;23.20;45.30;;;;;;5038414;28;20918;-60
2021/06/14 10:39:24;;;;;;;5.90;3.80;;;23.20;45.50;;;;;;5043275;28;20049;-60
2021/06/14 10:41:53;;;;;;;4.07;3.03;;;23.30;45.70;;;;;;5045253;28;20052;-59
2021/06/14 10:44:20;;;;;;;6.50;3.20;;;23.20;45.70;;;;;;5044640;28;20079;-59
2021/06/14 10:46:49;;;;;;;6.13;3.40;;;23.30;45.90;;;;;;5039651;28;20132;-59
2021/06/14 10:49:17;;;;;;;9.23;3.67;;;23.30;46.10;;;;;;5044188;28;20114;-60
2021/06/14 10:51:45;;;;;;;6.22;3.75;;;23.30;46.10;;;;;;5026212;28;20091;-60
2021/06/14 10:54:18;;;;;;;6.10;3.97;;;23.30;46.10;;;;;;5037510;28;20072;-60
2021/06/14 10:56:46;;;;;;;9.35;4.07;;;23.20;45.90;;;;;;5042004;28;20067;-61
2021/06/14 10:59:14;;;;;;;6.10;3.45;;;23.30;46.30;;;;;;5043874;28;20051;-58
2021/06/14 11:01:46;;;;;;;7.18;3.33;;;23.30;46.40;;;;;;5042605;28;20513;-60
2021/06/14 11:04:27;;;;;;;5.35;3.55;;;23.30;46.20;;;;;;5044516;28;20099;-61
2021/06/14 11:06:57;;;;;;;7.57;4.43;;;23.30;46.10;;;;;;5042698;28;20426;-60
2021/06/14 11:09:35;;;;;;;5.68;3.70;;;23.40;46.00;;;;;;5041645;28;20067;-57
2021/06/14 11:12:02;;;;;;;6.88;3.17;;;23.40;45.60;;;;;;5042068;28;20123;-60
2021/06/14 11:14:45;;;;;;;6.13;4.38;;;23.40;45.50;;;;;;5043671;28;20135;-60
2021/06/14 11:17:34;;;;;;;6.55;4.03;;;23.40;45.20;;;;;;5039578;28;20052;-60
2021/06/14 11:20:09;;;;;;;7.32;4.25;;;23.50;45.30;;;;;;5045038;28;20045;-61
2021/06/14 11:22:45;;;;;;;7.78;4.25;;;23.50;44.90;;;;;;5042466;28;20076;-60
2021/06/14 11:25:25;;;;;;;5.93;3.17;;;23.50;45.30;;;;;;5042673;28;20040;-61
2021/06/14 11:27:54;;;;;;;7.35;3.38;;;23.50;45.20;;;;;;5040431;28;20559;-61
2021/06/14 11:30:30;;;;;;;4.35;3.30;;;23.50;45.00;;;;;;5041464;28;20123;-62
2021/06/14 11:32:58;;;;;;;5.70;3.83;;;23.50;44.80;;;;;;5043006;28;20037;-60
2021/06/14 11:35:31;;;;;;;4.75;3.28;;;23.50;44.70;;;;;;5044676;28;20041;-60
2021/06/14 11:38:01;;;;;;;6.00;3.30;;;23.50;44.40;;;;;;5039721;28;20051;-61
2021/06/14 11:40:33;;;;;;;5.20;3.20;;;23.50;44.90;;;;;;5041335;28;20053;-60
2021/06/14 11:43:10;;;;;;;6.60;3.03;;;23.50;44.90;;;;;;5035875;28;20038;-61
2021/06/14 11:45:41;;;;;;;9.13;3.35;;;23.50;44.80;;;;;;5042682;28;20059;-61
2021/06/14 11:48:30;;;;;;;5.05;3.00;;;23.60;45.30;;;;;;5034195;28;20441;-61
2021/06/14 11:51:08;;;;;;;4.20;3.35;;;23.60;45.30;;;;;;5039702;28;20076;-59
2021/06/14 11:53:54;;;;;;;5.10;3.38;;;23.60;45.10;;;;;;5044026;28;20057;-57
2021/06/14 11:56:24;;;;;;;6.85;2.80;;;23.70;45.10;;;;;;5040078;28;20208;-60
2021/06/14 11:58:57;;;;;;;8.32;3.08;;;23.60;44.50;;;;;;5041594;28;20063;-60
2021/06/14 12:01:29;;;;;;;5.03;2.78;;;23.70;44.30;;;;;;5043084;28;20076;-60
2021/06/14 12:04:01;;;;;;;3.70;2.47;;;23.60;44.40;;;;;;5039701;28;20049;-60
2021/06/14 12:06:44;;;;;;;7.68;3.15;;;23.60;44.60;;;;;;5038981;28;20132;-61
2021/06/14 12:09:14;;;;;;;6.18;2.83;;;23.60;44.40;;;;;;5039026;28;20121;-63
2021/06/14 12:11:42;;;;;;;5.13;2.53;;;23.60;44.90;;;;;;5021082;28;20474;-59
2021/06/14 12:14:19;;;;;;;6.47;2.60;;;23.60;45.00;;;;;;5039402;28;20866;-61
2021/06/14 12:16:54;;;;;;;4.65;2.70;;;23.60;44.90;;;;;;5043149;28;20044;-60
2021/06/14 12:19:22;;;;;;;3.65;2.50;;;23.60;45.00;;;;;;5039212;28;20045;-60
2021/06/14 12:21:54;;;;;;;4.53;2.83;;;23.70;45.10;;;;;;5041576;28;20049;-62
2021/06/14 12:24:21;;;;;;;3.65;2.63;;;23.70;45.00;;;;;;5040468;28;20497;-61
2021/06/14 12:27:02;;;;;;;3.70;2.47;;;23.80;44.80;;;;;;5037182;28;20054;-62
2021/06/14 12:29:31;;;;;;;4.97;2.88;;;23.80;45.00;;;;;;5023852;28;20140;-61
2021/06/14 12:32:13;;;;;;;7.53;3.00;;;23.80;44.60;;;;;;5021436;28;20439;-60
2021/06/14 12:34:42;;;;;;;5.53;2.63;;;23.80;44.60;;;;;;5039153;28;20076;-62
2021/06/14 12:37:17;;;;;;;5.10;2.58;;;23.80;44.60;;;;;;5042031;28;20055;-58
2021/06/14 12:40:05;;;;;;;4.75;2.72;;;23.80;44.40;;;;;;5041117;28;20191;-56
2021/06/14 12:42:33;;;;;;;5.78;2.65;;;23.80;44.70;;;;;;5040403;28;20049;-62
2021/06/14 12:45:06;;;;;;;5.68;2.90;;;23.80;44.70;;;;;;5041875;28;20132;-60
2021/06/14 12:47:34;;;;;;;3.78;2.40;;;23.80;44.30;;;;;;5041344;28;20056;-61
2021/06/14 12:50:03;;;;;;;3.38;2.45;;;23.80;44.10;;;;;;5038019;28;20131;-61
2021/06/14 12:52:31;;;;;;;8.57;2.88;;;23.80;44.00;;;;;;5037765;28;20045;-60
2021/06/14 12:54:59;;;;;;;6.25;2.90;;;23.90;44.10;;;;;;5042572;28;20053;-60
2021/06/14 12:57:40;;;;;;;5.35;2.85;;;23.90;43.60;;;;;;5039762;28;20560;-60
2021/06/14 13:00:15;;;;;;;6.47;2.95;;;23.90;43.60;;;;;;5041284;28;20053;-60
2021/06/14 13:02:43;;;;;;;4.60;2.72;;;23.90;43.50;;;;;;5044084;28;20045;-58
2021/06/14 13:05:15;;;;;;;4.40;2.08;;;23.90;43.30;;;;;;5041462;28;20286;-60